sensor_id;sensor_type;location;lat;lon;timestamp;P1;durP1;ratioP1;P2;durP2;ratioP2
29280;SDS011;25048;49.590;11.026;2024-01-16T00:00:38;7.30;;;4.20;;
29280;SDS011;25048;49.590;11.026;2024-01-16T00:03:05;8.43;;;5.23;;
29280;SDS011;25048;49.590;11.026;2024-01-16T00:05:33;13.47;;;4.00;;
29280;SDS011;25048;49.590;11.026;2024-01-16T00:08:00;8.10;;;3.97;;
29280;SDS011;25048;49.590;11.026;2024-01-16T00:10:28;6.33;;;3.53;;
29280;SDS011;25048;49.590;11.026;2024-01-16T00:12:56;7.47;;;4.17;;
29280;SDS011;25048;49.590;11.026;2024-01-16T00:15:23;7.13;;;4.13;;
29280;SDS011;25048;49.590;11.026;2024-01-16T00:17:51;6.60;;;3.47;;
29280;SDS011;25048;49.590;11.026;2024-01-16T00:20:19;11.03;;;3.80;;
29280;SDS011;25048;49.590;11.026;2024-01-16T00:22:48;8.50;;;3.53;;
29280;SDS011;25048;49.590;11.026;2024-01-16T00:25:17;6.43;;;3.83;;
29280;SDS011;25048;49.590;11.026;2024-01-16T00:27:47;9.57;;;4.03;;
29280;SDS011;25048;49.590;11.026;2024-01-16T00:30:14;6.93;;;4.07;;
29280;SDS011;25048;49.590;11.026;2024-01-16T00:32:42;7.50;;;3.97;;
29280;SDS011;25048;49.590;11.026;2024-01-16T00:35:10;5.37;;;3.43;;
29280;SDS011;25048;49.590;11.026;2024-01-16T00:37:38;5.73;;;3.40;;
29280;SDS011;25048;49.590;11.026;2024-01-16T00:40:06;9.07;;;4.13;;
29280;SDS011;25048;49.590;11.026;2024-01-16T00:42:34;10.57;;;4.47;;
29280;SDS011;25048;49.590;11.026;2024-01-16T00:45:02;9.70;;;4.00;;
29280;SDS011;25048;49.590;11.026;2024-01-16T00:47:30;9.93;;;3.93;;
29280;SDS011;25048;49.590;11.026;2024-01-16T00:49:58;5.77;;;3.80;;
29280;SDS011;25048;49.590;11.026;2024-01-16T00:52:28;9.70;;;3.60;;
29280;SDS011;25048;49.590;11.026;2024-01-16T00:54:56;8.07;;;3.43;;
29280;SDS011;25048;49.590;11.026;2024-01-16T00:57:23;9.13;;;4.10;;
29280;SDS011;25048;49.590;11.026;2024-01-16T00:59:51;7.67;;;3.10;;
29280;SDS011;25048;49.590;11.026;2024-01-16T01:02:18;7.77;;;3.57;;
29280;SDS011;25048;49.590;11.026;2024-01-16T01:04:46;11.17;;;3.70;;
29280;SDS011;25048;49.590;11.026;2024-01-16T01:07:13;9.07;;;3.30;;
29280;SDS011;25048;49.590;11.026;2024-01-16T01:09:41;10.13;;;4.00;;
29280;SDS011;25048;49.590;11.026;2024-01-16T01:12:08;6.90;;;4.27;;
29280;SDS011;25048;49.590;11.026;2024-01-16T01:14:36;10.70;;;4.97;;
29280;SDS011;25048;49.590;11.026;2024-01-16T01:17:04;9.30;;;4.40;;
29280;SDS011;25048;49.590;11.026;2024-01-16T01:19:31;9.27;;;3.73;;
29280;SDS011;25048;49.590;11.026;2024-01-16T01:21:58;10.67;;;4.50;;
29280;SDS011;25048;49.590;11.026;2024-01-16T01:24:26;5.47;;;3.43;;
29280;SDS011;25048;49.590;11.026;2024-01-16T01:26:53;7.90;;;4.10;;
29280;SDS011;25048;49.590;11.026;2024-01-16T01:29:21;10.00;;;3.67;;
29280;SDS011;25048;49.590;11.026;2024-01-16T01:31:48;9.50;;;4.20;;
29280;SDS011;25048;49.590;11.026;2024-01-16T01:34:16;6.20;;;3.57;;
29280;SDS011;25048;49.590;11.026;2024-01-16T01:36:43;9.27;;;3.80;;
29280;SDS011;25048;49.590;11.026;2024-01-16T01:39:11;5.67;;;3.60;;
29280;SDS011;25048;49.590;11.026;2024-01-16T01:41:38;11.30;;;3.87;;
29280;SDS011;25048;49.590;11.026;2024-01-16T01:44:07;7.40;;;3.37;;
29280;SDS011;25048;49.590;11.026;2024-01-16T01:46:36;8.43;;;3.63;;
29280;SDS011;25048;49.590;11.026;2024-01-16T01:49:04;12.60;;;4.13;;
29280;SDS011;25048;49.590;11.026;2024-01-16T01:51:31;6.97;;;3.80;;
29280;SDS011;25048;49.590;11.026;2024-01-16T01:54:00;12.17;;;4.73;;
29280;SDS011;25048;49.590;11.026;2024-01-16T01:56:28;6.53;;;3.60;;
29280;SDS011;25048;49.590;11.026;2024-01-16T01:58:57;12.40;;;4.30;;
29280;SDS011;25048;49.590;11.026;2024-01-16T02:01:27;5.77;;;3.70;;
29280;SDS011;25048;49.590;11.026;2024-01-16T02:03:57;7.97;;;4.20;;
29280;SDS011;25048;49.590;11.026;2024-01-16T02:06:26;8.50;;;4.27;;
29280;SDS011;25048;49.590;11.026;2024-01-16T02:08:54;12.60;;;4.97;;
29280;SDS011;25048;49.590;11.026;2024-01-16T02:11:21;13.53;;;4.80;;
29280;SDS011;25048;49.590;11.026;2024-01-16T02:13:49;11.17;;;4.93;;
29280;SDS011;25048;49.590;11.026;2024-01-16T02:16:22;7.10;;;4.50;;
29280;SDS011;25048;49.590;11.026;2024-01-16T02:18:47;8.73;;;4.27;;
29280;SDS011;25048;49.590;11.026;2024-01-16T02:21:17;6.87;;;4.10;;
29280;SDS011;25048;49.590;11.026;2024-01-16T02:23:46;9.07;;;4.00;;
29280;SDS011;25048;49.590;11.026;2024-01-16T02:26:14;8.90;;;4.27;;
29280;SDS011;25048;49.590;11.026;2024-01-16T02:28:42;7.57;;;4.37;;
29280;SDS011;25048;49.590;11.026;2024-01-16T02:31:10;8.97;;;4.00;;
29280;SDS011;25048;49.590;11.026;2024-01-16T02:33:38;14.67;;;5.07;;
29280;SDS011;25048;49.590;11.026;2024-01-16T02:36:05;7.83;;;4.47;;
29280;SDS011;25048;49.590;11.026;2024-01-16T02:38:33;9.43;;;4.93;;
29280;SDS011;25048;49.590;11.026;2024-01-16T02:41:00;10.20;;;4.07;;
29280;SDS011;25048;49.590;11.026;2024-01-16T02:43:28;8.80;;;4.77;;
29280;SDS011;25048;49.590;11.026;2024-01-16T02:45:55;7.83;;;4.67;;
29280;SDS011;25048;49.590;11.026;2024-01-16T02:48:23;12.73;;;4.87;;
29280;SDS011;25048;49.590;11.026;2024-01-16T02:50:51;10.90;;;5.00;;
29280;SDS011;25048;49.590;11.026;2024-01-16T02:53:18;9.77;;;4.23;;
29280;SDS011;25048;49.590;11.026;2024-01-16T02:55:46;7.27;;;4.60;;
29280;SDS011;25048;49.590;11.026;2024-01-16T02:58:13;8.43;;;5.07;;
29280;SDS011;25048;49.590;11.026;2024-01-16T03:00:41;11.73;;;4.90;;
29280;SDS011;25048;49.590;11.026;2024-01-16T03:03:09;9.17;;;5.27;;
29280;SDS011;25048;49.590;11.026;2024-01-16T03:05:37;6.87;;;4.33;;
29280;SDS011;25048;49.590;11.026;2024-01-16T03:08:05;8.87;;;5.33;;
29280;SDS011;25048;49.590;11.026;2024-01-16T03:10:33;10.47;;;4.73;;
29280;SDS011;25048;49.590;11.026;2024-01-16T03:13:01;8.07;;;4.97;;
29280;SDS011;25048;49.590;11.026;2024-01-16T03:15:28;10.43;;;4.80;;
29280;SDS011;25048;49.590;11.026;2024-01-16T03:17:58;10.07;;;4.80;;
29280;SDS011;25048;49.590;11.026;2024-01-16T03:20:27;11.50;;;5.03;;
29280;SDS011;25048;49.590;11.026;2024-01-16T03:22:55;13.87;;;4.80;;
29280;SDS011;25048;49.590;11.026;2024-01-16T03:25:22;8.97;;;5.00;;
29280;SDS011;25048;49.590;11.026;2024-01-16T03:27:50;9.67;;;5.37;;
29280;SDS011;25048;49.590;11.026;2024-01-16T03:30:17;10.87;;;5.10;;
29280;SDS011;25048;49.590;11.026;2024-01-16T03:32:45;12.77;;;5.63;;
29280;SDS011;25048;49.590;11.026;2024-01-16T03:35:12;12.73;;;5.60;;
29280;SDS011;25048;49.590;11.026;2024-01-16T03:37:40;9.07;;;4.90;;
29280;SDS011;25048;49.590;11.026;2024-01-16T03:40:07;10.27;;;5.10;;
29280;SDS011;25048;49.590;11.026;2024-01-16T03:42:37;12.63;;;5.13;;
29280;SDS011;25048;49.590;11.026;2024-01-16T03:45:05;8.17;;;5.07;;
29280;SDS011;25048;49.590;11.026;2024-01-16T03:47:33;8.77;;;5.20;;
29280;SDS011;25048;49.590;11.026;2024-01-16T03:50:01;12.70;;;5.30;;
29280;SDS011;25048;49.590;11.026;2024-01-16T03:52:28;11.10;;;5.50;;
29280;SDS011;25048;49.590;11.026;2024-01-16T03:54:56;10.17;;;5.77;;
29280;SDS011;25048;49.590;11.026;2024-01-16T03:57:23;14.53;;;6.07;;
29280;SDS011;25048;49.590;11.026;2024-01-16T03:59:51;12.23;;;5.53;;
29280;SDS011;25048;49.590;11.026;2024-01-16T04:02:18;12.10;;;5.67;;
29280;SDS011;25048;49.590;11.026;2024-01-16T04:04:46;14.07;;;5.70;;
29280;SDS011;25048;49.590;11.026;2024-01-16T04:07:13;9.97;;;5.83;;
29280;SDS011;25048;49.590;11.026;2024-01-16T04:09:46;11.30;;;6.23;;
29280;SDS011;25048;49.590;11.026;2024-01-16T04:12:10;12.43;;;5.97;;
29280;SDS011;25048;49.590;11.026;2024-01-16T04:14:37;14.10;;;6.30;;
29280;SDS011;25048;49.590;11.026;2024-01-16T04:17:05;9.27;;;5.83;;
29280;SDS011;25048;49.590;11.026;2024-01-16T04:19:33;11.33;;;5.50;;
29280;SDS011;25048;49.590;11.026;2024-01-16T04:22:00;17.30;;;6.00;;
29280;SDS011;25048;49.590;11.026;2024-01-16T04:24:28;17.13;;;5.43;;
29280;SDS011;25048;49.590;11.026;2024-01-16T04:26:55;13.67;;;5.97;;
29280;SDS011;25048;49.590;11.026;2024-01-16T04:29:23;14.20;;;6.23;;
29280;SDS011;25048;49.590;11.026;2024-01-16T04:31:50;15.10;;;6.53;;
29280;SDS011;25048;49.590;11.026;2024-01-16T04:34:18;10.27;;;6.07;;
29280;SDS011;25048;49.590;11.026;2024-01-16T04:36:45;12.17;;;6.10;;
29280;SDS011;25048;49.590;11.026;2024-01-16T04:39:13;11.83;;;6.13;;
29280;SDS011;25048;49.590;11.026;2024-01-16T04:41:41;11.93;;;5.60;;
29280;SDS011;25048;49.590;11.026;2024-01-16T04:44:08;15.07;;;6.87;;
29280;SDS011;25048;49.590;11.026;2024-01-16T04:46:36;15.80;;;6.40;;
29280;SDS011;25048;49.590;11.026;2024-01-16T04:49:04;14.87;;;6.10;;
29280;SDS011;25048;49.590;11.026;2024-01-16T04:51:31;11.67;;;6.27;;
29280;SDS011;25048;49.590;11.026;2024-01-16T04:53:59;13.23;;;6.53;;
29280;SDS011;25048;49.590;11.026;2024-01-16T04:56:26;13.37;;;6.63;;
29280;SDS011;25048;49.590;11.026;2024-01-16T04:58:54;16.10;;;6.50;;
29280;SDS011;25048;49.590;11.026;2024-01-16T05:01:21;10.50;;;5.83;;
29280;SDS011;25048;49.590;11.026;2024-01-16T05:03:49;10.93;;;5.53;;
29280;SDS011;25048;49.590;11.026;2024-01-16T05:06:16;17.13;;;6.87;;
29280;SDS011;25048;49.590;11.026;2024-01-16T05:08:44;14.87;;;6.57;;
29280;SDS011;25048;49.590;11.026;2024-01-16T05:11:11;11.83;;;5.47;;
29280;SDS011;25048;49.590;11.026;2024-01-16T05:13:39;12.83;;;7.03;;
29280;SDS011;25048;49.590;11.026;2024-01-16T05:16:06;12.03;;;6.57;;
29280;SDS011;25048;49.590;11.026;2024-01-16T05:18:34;12.40;;;6.80;;
29280;SDS011;25048;49.590;11.026;2024-01-16T05:21:01;12.50;;;6.20;;
29280;SDS011;25048;49.590;11.026;2024-01-16T05:23:29;13.23;;;6.47;;
29280;SDS011;25048;49.590;11.026;2024-01-16T05:25:56;14.23;;;6.17;;
29280;SDS011;25048;49.590;11.026;2024-01-16T05:28:24;18.57;;;6.43;;
29280;SDS011;25048;49.590;11.026;2024-01-16T05:30:51;10.73;;;5.70;;
29280;SDS011;25048;49.590;11.026;2024-01-16T05:33:19;11.77;;;5.93;;
29280;SDS011;25048;49.590;11.026;2024-01-16T05:35:47;11.97;;;5.80;;
29280;SDS011;25048;49.590;11.026;2024-01-16T05:38:14;13.63;;;6.17;;
29280;SDS011;25048;49.590;11.026;2024-01-16T05:40:42;16.80;;;6.53;;
29280;SDS011;25048;49.590;11.026;2024-01-16T05:43:09;15.77;;;5.67;;
29280;SDS011;25048;49.590;11.026;2024-01-16T05:45:37;11.23;;;6.67;;
29280;SDS011;25048;49.590;11.026;2024-01-16T05:48:05;11.93;;;6.10;;
29280;SDS011;25048;49.590;11.026;2024-01-16T05:50:34;13.80;;;6.00;;
29280;SDS011;25048;49.590;11.026;2024-01-16T05:53:03;11.30;;;6.33;;
29280;SDS011;25048;49.590;11.026;2024-01-16T05:55:31;11.33;;;6.13;;
29280;SDS011;25048;49.590;11.026;2024-01-16T05:57:58;12.63;;;5.73;;
29280;SDS011;25048;49.590;11.026;2024-01-16T06:00:26;19.63;;;6.60;;
29280;SDS011;25048;49.590;11.026;2024-01-16T06:02:53;14.23;;;6.60;;
29280;SDS011;25048;49.590;11.026;2024-01-16T06:05:21;13.10;;;6.50;;
29280;SDS011;25048;49.590;11.026;2024-01-16T06:07:48;12.33;;;5.53;;
29280;SDS011;25048;49.590;11.026;2024-01-16T06:10:16;16.27;;;5.60;;
29280;SDS011;25048;49.590;11.026;2024-01-16T06:12:43;16.23;;;5.93;;
29280;SDS011;25048;49.590;11.026;2024-01-16T06:15:11;12.93;;;6.50;;
29280;SDS011;25048;49.590;11.026;2024-01-16T06:17:38;13.80;;;6.77;;
29280;SDS011;25048;49.590;11.026;2024-01-16T06:20:06;15.60;;;5.80;;
29280;SDS011;25048;49.590;11.026;2024-01-16T06:22:34;9.93;;;5.47;;
29280;SDS011;25048;49.590;11.026;2024-01-16T06:25:01;15.43;;;6.17;;
29280;SDS011;25048;49.590;11.026;2024-01-16T06:27:29;22.03;;;7.20;;
29280;SDS011;25048;49.590;11.026;2024-01-16T06:29:56;14.63;;;6.47;;
29280;SDS011;25048;49.590;11.026;2024-01-16T06:32:24;14.03;;;6.80;;
29280;SDS011;25048;49.590;11.026;2024-01-16T06:34:51;13.70;;;6.07;;
29280;SDS011;25048;49.590;11.026;2024-01-16T06:37:19;13.57;;;6.37;;
29280;SDS011;25048;49.590;11.026;2024-01-16T06:39:46;13.70;;;5.83;;
29280;SDS011;25048;49.590;11.026;2024-01-16T06:42:14;15.20;;;6.53;;
29280;SDS011;25048;49.590;11.026;2024-01-16T06:44:41;12.50;;;6.03;;
29280;SDS011;25048;49.590;11.026;2024-01-16T06:47:09;15.83;;;6.33;;
29280;SDS011;25048;49.590;11.026;2024-01-16T06:49:36;13.50;;;6.23;;
29280;SDS011;25048;49.590;11.026;2024-01-16T06:52:04;11.93;;;5.77;;
29280;SDS011;25048;49.590;11.026;2024-01-16T06:54:31;11.30;;;6.23;;
29280;SDS011;25048;49.590;11.026;2024-01-16T06:56:59;11.90;;;5.53;;
29280;SDS011;25048;49.590;11.026;2024-01-16T06:59:26;14.57;;;6.23;;
29280;SDS011;25048;49.590;11.026;2024-01-16T07:01:54;16.13;;;6.60;;
29280;SDS011;25048;49.590;11.026;2024-01-16T07:04:22;14.37;;;5.70;;
29280;SDS011;25048;49.590;11.026;2024-01-16T07:06:49;14.57;;;6.60;;
29280;SDS011;25048;49.590;11.026;2024-01-16T07:09:17;13.20;;;6.27;;
29280;SDS011;25048;49.590;11.026;2024-01-16T07:11:46;11.53;;;5.60;;
29280;SDS011;25048;49.590;11.026;2024-01-16T07:14:14;15.87;;;6.93;;
29280;SDS011;25048;49.590;11.026;2024-01-16T07:16:41;11.93;;;6.87;;
29280;SDS011;25048;49.590;11.026;2024-01-16T07:19:09;17.07;;;6.23;;
29280;SDS011;25048;49.590;11.026;2024-01-16T07:21:37;13.37;;;6.73;;
29280;SDS011;25048;49.590;11.026;2024-01-16T07:24:05;13.50;;;5.77;;
29280;SDS011;25048;49.590;11.026;2024-01-16T07:26:33;14.83;;;6.53;;
29280;SDS011;25048;49.590;11.026;2024-01-16T07:29:01;14.70;;;6.23;;
29280;SDS011;25048;49.590;11.026;2024-01-16T07:31:29;13.80;;;6.50;;
29280;SDS011;25048;49.590;11.026;2024-01-16T07:33:57;12.77;;;6.17;;
29280;SDS011;25048;49.590;11.026;2024-01-16T07:36:24;14.57;;;6.43;;
29280;SDS011;25048;49.590;11.026;2024-01-16T07:38:52;12.57;;;6.27;;
29280;SDS011;25048;49.590;11.026;2024-01-16T07:41:19;10.77;;;5.33;;
29280;SDS011;25048;49.590;11.026;2024-01-16T07:43:47;11.30;;;6.40;;
29280;SDS011;25048;49.590;11.026;2024-01-16T07:46:14;12.87;;;6.13;;
29280;SDS011;25048;49.590;11.026;2024-01-16T07:48:42;14.07;;;6.10;;
29280;SDS011;25048;49.590;11.026;2024-01-16T07:51:09;18.17;;;6.83;;
29280;SDS011;25048;49.590;11.026;2024-01-16T07:53:37;11.70;;;6.67;;
29280;SDS011;25048;49.590;11.026;2024-01-16T07:56:04;14.07;;;6.30;;
29280;SDS011;25048;49.590;11.026;2024-01-16T07:58:32;9.73;;;5.83;;
29280;SDS011;25048;49.590;11.026;2024-01-16T08:00:59;14.27;;;5.80;;
29280;SDS011;25048;49.590;11.026;2024-01-16T08:03:27;15.83;;;6.90;;
29280;SDS011;25048;49.590;11.026;2024-01-16T08:05:55;16.50;;;7.43;;
29280;SDS011;25048;49.590;11.026;2024-01-16T08:08:22;12.10;;;6.17;;
29280;SDS011;25048;49.590;11.026;2024-01-16T08:10:50;24.17;;;6.87;;
29280;SDS011;25048;49.590;11.026;2024-01-16T08:13:18;10.40;;;5.80;;
29280;SDS011;25048;49.590;11.026;2024-01-16T08:15:45;11.17;;;6.10;;
29280;SDS011;25048;49.590;11.026;2024-01-16T08:18:13;12.37;;;5.50;;
29280;SDS011;25048;49.590;11.026;2024-01-16T08:20:42;13.33;;;6.37;;
29280;SDS011;25048;49.590;11.026;2024-01-16T08:23:09;13.77;;;6.23;;
29280;SDS011;25048;49.590;11.026;2024-01-16T08:25:38;11.70;;;5.73;;
29280;SDS011;25048;49.590;11.026;2024-01-16T08:28:05;12.20;;;5.90;;
29280;SDS011;25048;49.590;11.026;2024-01-16T08:30:33;10.70;;;5.70;;
29280;SDS011;25048;49.590;11.026;2024-01-16T08:33:00;17.37;;;5.70;;
29280;SDS011;25048;49.590;11.026;2024-01-16T08:35:28;15.87;;;5.93;;
29280;SDS011;25048;49.590;11.026;2024-01-16T08:37:55;15.03;;;7.57;;
29280;SDS011;25048;49.590;11.026;2024-01-16T08:40:25;10.20;;;5.23;;
29280;SDS011;25048;49.590;11.026;2024-01-16T08:42:52;12.87;;;6.33;;
29280;SDS011;25048;49.590;11.026;2024-01-16T08:45:21;22.13;;;6.27;;
29280;SDS011;25048;49.590;11.026;2024-01-16T08:47:49;10.50;;;6.03;;
29280;SDS011;25048;49.590;11.026;2024-01-16T08:50:17;12.67;;;6.23;;
29280;SDS011;25048;49.590;11.026;2024-01-16T08:52:44;11.77;;;5.30;;
29280;SDS011;25048;49.590;11.026;2024-01-16T08:55:12;13.43;;;5.73;;
29280;SDS011;25048;49.590;11.026;2024-01-16T08:57:40;15.03;;;5.93;;
29280;SDS011;25048;49.590;11.026;2024-01-16T09:00:07;13.17;;;5.80;;
29280;SDS011;25048;49.590;11.026;2024-01-16T09:02:38;10.93;;;5.60;;
29280;SDS011;25048;49.590;11.026;2024-01-16T09:05:06;15.17;;;5.77;;
29280;SDS011;25048;49.590;11.026;2024-01-16T09:07:33;10.57;;;5.20;;
29280;SDS011;25048;49.590;11.026;2024-01-16T09:10:01;16.97;;;5.83;;
29280;SDS011;25048;49.590;11.026;2024-01-16T09:12:28;15.33;;;5.63;;
29280;SDS011;25048;49.590;11.026;2024-01-16T09:14:56;10.90;;;5.50;;
29280;SDS011;25048;49.590;11.026;2024-01-16T09:17:24;13.40;;;5.77;;
29280;SDS011;25048;49.590;11.026;2024-01-16T09:19:52;16.27;;;5.23;;
29280;SDS011;25048;49.590;11.026;2024-01-16T09:22:19;14.30;;;5.93;;
29280;SDS011;25048;49.590;11.026;2024-01-16T09:24:47;11.97;;;5.83;;
29280;SDS011;25048;49.590;11.026;2024-01-16T09:27:15;9.40;;;5.47;;
29280;SDS011;25048;49.590;11.026;2024-01-16T09:29:42;10.67;;;5.17;;
29280;SDS011;25048;49.590;11.026;2024-01-16T09:32:10;19.00;;;6.17;;
29280;SDS011;25048;49.590;11.026;2024-01-16T09:34:37;10.20;;;5.17;;
29280;SDS011;25048;49.590;11.026;2024-01-16T09:37:05;8.23;;;5.13;;
29280;SDS011;25048;49.590;11.026;2024-01-16T09:39:33;13.13;;;5.43;;
29280;SDS011;25048;49.590;11.026;2024-01-16T09:42:02;8.43;;;5.23;;
29280;SDS011;25048;49.590;11.026;2024-01-16T09:44:30;9.93;;;5.30;;
29280;SDS011;25048;49.590;11.026;2024-01-16T09:46:59;18.13;;;5.73;;
29280;SDS011;25048;49.590;11.026;2024-01-16T09:49:31;12.33;;;5.77;;
29280;SDS011;25048;49.590;11.026;2024-01-16T09:51:58;13.93;;;6.67;;
29280;SDS011;25048;49.590;11.026;2024-01-16T09:54:27;16.23;;;6.90;;
29280;SDS011;25048;49.590;11.026;2024-01-16T09:56:56;23.00;;;8.67;;
29280;SDS011;25048;49.590;11.026;2024-01-16T09:59:25;15.43;;;5.83;;
29280;SDS011;25048;49.590;11.026;2024-01-16T10:01:55;14.50;;;6.40;;
29280;SDS011;25048;49.590;11.026;2024-01-16T10:04:24;17.53;;;5.33;;
29280;SDS011;25048;49.590;11.026;2024-01-16T10:06:53;16.87;;;5.17;;
29280;SDS011;25048;49.590;11.026;2024-01-16T10:09:23;12.37;;;6.47;;
29280;SDS011;25048;49.590;11.026;2024-01-16T10:11:51;10.27;;;5.07;;
29280;SDS011;25048;49.590;11.026;2024-01-16T10:14:20;13.10;;;5.63;;
29280;SDS011;25048;49.590;11.026;2024-01-16T10:16:58;13.20;;;5.53;;
29280;SDS011;25048;49.590;11.026;2024-01-16T10:19:34;9.00;;;5.20;;
29280;SDS011;25048;49.590;11.026;2024-01-16T10:22:04;12.30;;;7.77;;
29280;SDS011;25048;49.590;11.026;2024-01-16T10:24:35;14.57;;;6.07;;
29280;SDS011;25048;49.590;11.026;2024-01-16T10:27:03;13.57;;;5.90;;
29280;SDS011;25048;49.590;11.026;2024-01-16T10:29:31;14.03;;;5.80;;
29280;SDS011;25048;49.590;11.026;2024-01-16T10:31:59;14.37;;;5.67;;
29280;SDS011;25048;49.590;11.026;2024-01-16T10:34:27;9.87;;;4.60;;
29280;SDS011;25048;49.590;11.026;2024-01-16T10:36:59;9.23;;;4.70;;
29280;SDS011;25048;49.590;11.026;2024-01-16T10:39:27;10.43;;;4.77;;
29280;SDS011;25048;49.590;11.026;2024-01-16T10:41:55;13.83;;;5.20;;
29280;SDS011;25048;49.590;11.026;2024-01-16T10:44:25;22.70;;;5.43;;
29280;SDS011;25048;49.590;11.026;2024-01-16T10:47:09;8.33;;;4.30;;
29280;SDS011;25048;49.590;11.026;2024-01-16T10:49:25;11.40;;;4.37;;
29280;SDS011;25048;49.590;11.026;2024-01-16T10:51:53;11.77;;;4.60;;
29280;SDS011;25048;49.590;11.026;2024-01-16T10:54:22;9.77;;;4.77;;
29280;SDS011;25048;49.590;11.026;2024-01-16T10:56:52;13.03;;;5.10;;
29280;SDS011;25048;49.590;11.026;2024-01-16T10:59:39;11.83;;;5.10;;
29280;SDS011;25048;49.590;11.026;2024-01-16T11:02:18;10.77;;;4.83;;
29280;SDS011;25048;49.590;11.026;2024-01-16T11:04:52;9.63;;;5.03;;
29280;SDS011;25048;49.590;11.026;2024-01-16T11:07:23;13.40;;;5.30;;
29280;SDS011;25048;49.590;11.026;2024-01-16T11:09:57;9.57;;;5.03;;
29280;SDS011;25048;49.590;11.026;2024-01-16T11:12:25;9.30;;;5.20;;
29280;SDS011;25048;49.590;11.026;2024-01-16T11:14:58;7.30;;;4.80;;
29280;SDS011;25048;49.590;11.026;2024-01-16T11:17:37;15.03;;;5.53;;
29280;SDS011;25048;49.590;11.026;2024-01-16T11:20:11;11.97;;;4.60;;
29280;SDS011;25048;49.590;11.026;2024-01-16T11:22:46;17.57;;;6.10;;
29280;SDS011;25048;49.590;11.026;2024-01-16T11:25:23;9.10;;;5.63;;
29280;SDS011;25048;49.590;11.026;2024-01-16T11:28:12;10.60;;;5.40;;
29280;SDS011;25048;49.590;11.026;2024-01-16T11:30:44;14.53;;;5.67;;
29280;SDS011;25048;49.590;11.026;2024-01-16T11:33:55;10.47;;;4.83;;
29280;SDS011;25048;49.590;11.026;2024-01-16T11:36:00;8.83;;;4.83;;
29280;SDS011;25048;49.590;11.026;2024-01-16T11:38:28;16.23;;;5.20;;
29280;SDS011;25048;49.590;11.026;2024-01-16T11:40:58;12.87;;;5.80;;
29280;SDS011;25048;49.590;11.026;2024-01-16T11:46:07;9.80;;;4.90;;
29280;SDS011;25048;49.590;11.026;2024-01-16T11:48:35;12.50;;;5.03;;
29280;SDS011;25048;49.590;11.026;2024-01-16T11:51:26;10.27;;;4.97;;
29280;SDS011;25048;49.590;11.026;2024-01-16T11:59:57;10.47;;;3.80;;
29280;SDS011;25048;49.590;11.026;2024-01-16T12:02:42;12.60;;;4.40;;
29280;SDS011;25048;49.590;11.026;2024-01-16T12:05:05;6.50;;;4.03;;
29280;SDS011;25048;49.590;11.026;2024-01-16T12:07:46;10.30;;;4.70;;
29280;SDS011;25048;49.590;11.026;2024-01-16T12:10:15;12.17;;;4.30;;
29280;SDS011;25048;49.590;11.026;2024-01-16T12:12:45;18.03;;;4.20;;
29280;SDS011;25048;49.590;11.026;2024-01-16T12:15:18;7.23;;;4.17;;
29280;SDS011;25048;49.590;11.026;2024-01-16T12:17:56;14.60;;;4.40;;
29280;SDS011;25048;49.590;11.026;2024-01-16T12:20:28;10.87;;;4.40;;
29280;SDS011;25048;49.590;11.026;2024-01-16T12:22:55;11.73;;;4.13;;
29280;SDS011;25048;49.590;11.026;2024-01-16T12:25:33;11.20;;;4.43;;
29280;SDS011;25048;49.590;11.026;2024-01-16T12:28:06;11.67;;;5.17;;
29280;SDS011;25048;49.590;11.026;2024-01-16T12:30:39;10.80;;;4.90;;
29280;SDS011;25048;49.590;11.026;2024-01-16T12:33:08;10.97;;;4.63;;
29280;SDS011;25048;49.590;11.026;2024-01-16T12:35:38;11.03;;;4.30;;
29280;SDS011;25048;49.590;11.026;2024-01-16T12:38:07;11.37;;;4.00;;
29280;SDS011;25048;49.590;11.026;2024-01-16T12:40:39;12.43;;;4.83;;
29280;SDS011;25048;49.590;11.026;2024-01-16T12:43:08;7.50;;;4.70;;
29280;SDS011;25048;49.590;11.026;2024-01-16T12:45:36;9.30;;;4.53;;
29280;SDS011;25048;49.590;11.026;2024-01-16T12:48:04;11.67;;;5.00;;
29280;SDS011;25048;49.590;11.026;2024-01-16T12:50:33;9.63;;;4.17;;
29280;SDS011;25048;49.590;11.026;2024-01-16T12:53:03;9.83;;;4.87;;
29280;SDS011;25048;49.590;11.026;2024-01-16T12:55:35;8.60;;;4.17;;
29280;SDS011;25048;49.590;11.026;2024-01-16T13:00:46;8.70;;;4.23;;
29280;SDS011;25048;49.590;11.026;2024-01-16T13:03:19;9.87;;;3.97;;
29280;SDS011;25048;49.590;11.026;2024-01-16T13:05:57;8.80;;;3.70;;
29280;SDS011;25048;49.590;11.026;2024-01-16T13:08:26;10.70;;;3.77;;
29280;SDS011;25048;49.590;11.026;2024-01-16T13:11:04;8.80;;;3.40;;
29280;SDS011;25048;49.590;11.026;2024-01-16T13:13:33;8.33;;;3.37;;
29280;SDS011;25048;49.590;11.026;2024-01-16T13:16:02;7.83;;;3.93;;
29280;SDS011;25048;49.590;11.026;2024-01-16T13:18:34;8.63;;;3.23;;
29280;SDS011;25048;49.590;11.026;2024-01-16T13:21:01;7.67;;;3.13;;
29280;SDS011;25048;49.590;11.026;2024-01-16T13:23:30;14.40;;;3.67;;
29280;SDS011;25048;49.590;11.026;2024-01-16T13:25:57;7.63;;;3.07;;
29280;SDS011;25048;49.590;11.026;2024-01-16T13:31:45;6.60;;;2.67;;
29280;SDS011;25048;49.590;11.026;2024-01-16T13:34:13;8.87;;;3.80;;
29280;SDS011;25048;49.590;11.026;2024-01-16T13:36:43;7.10;;;2.90;;
29280;SDS011;25048;49.590;11.026;2024-01-16T13:39:11;10.50;;;3.80;;
29280;SDS011;25048;49.590;11.026;2024-01-16T13:41:38;7.73;;;3.27;;
29280;SDS011;25048;49.590;11.026;2024-01-16T13:44:06;10.57;;;2.93;;
29280;SDS011;25048;49.590;11.026;2024-01-16T13:46:33;7.10;;;3.20;;
29280;SDS011;25048;49.590;11.026;2024-01-16T13:49:02;6.23;;;3.10;;
29280;SDS011;25048;49.590;11.026;2024-01-16T13:51:29;8.17;;;3.10;;
29280;SDS011;25048;49.590;11.026;2024-01-16T13:53:57;9.37;;;3.40;;
29280;SDS011;25048;49.590;11.026;2024-01-16T13:56:24;7.07;;;2.93;;
29280;SDS011;25048;49.590;11.026;2024-01-16T13:58:52;10.97;;;3.60;;
29280;SDS011;25048;49.590;11.026;2024-01-16T14:01:20;11.57;;;3.67;;
29280;SDS011;25048;49.590;11.026;2024-01-16T14:03:48;11.27;;;3.23;;
29280;SDS011;25048;49.590;11.026;2024-01-16T14:06:16;10.33;;;3.30;;
29280;SDS011;25048;49.590;11.026;2024-01-16T14:08:43;8.87;;;2.80;;
29280;SDS011;25048;49.590;11.026;2024-01-16T14:11:11;6.63;;;3.37;;
29280;SDS011;25048;49.590;11.026;2024-01-16T14:13:38;13.37;;;3.47;;
29280;SDS011;25048;49.590;11.026;2024-01-16T14:16:06;6.80;;;2.83;;
29280;SDS011;25048;49.590;11.026;2024-01-16T14:18:33;7.70;;;3.17;;
29280;SDS011;25048;49.590;11.026;2024-01-16T14:21:01;8.77;;;3.00;;
29280;SDS011;25048;49.590;11.026;2024-01-16T14:23:30;5.90;;;2.57;;
29280;SDS011;25048;49.590;11.026;2024-01-16T14:25:57;4.10;;;2.60;;
29280;SDS011;25048;49.590;11.026;2024-01-16T14:28:25;7.20;;;3.00;;
29280;SDS011;25048;49.590;11.026;2024-01-16T14:30:53;7.53;;;3.37;;
29280;SDS011;25048;49.590;11.026;2024-01-16T14:33:20;8.23;;;3.17;;
29280;SDS011;25048;49.590;11.026;2024-01-16T14:35:48;8.67;;;3.00;;
29280;SDS011;25048;49.590;11.026;2024-01-16T14:38:15;7.60;;;2.87;;
29280;SDS011;25048;49.590;11.026;2024-01-16T14:40:43;6.93;;;3.27;;
29280;SDS011;25048;49.590;11.026;2024-01-16T14:43:11;7.93;;;2.87;;
29280;SDS011;25048;49.590;11.026;2024-01-16T14:45:41;8.40;;;3.10;;
29280;SDS011;25048;49.590;11.026;2024-01-16T14:48:08;6.37;;;2.90;;